createdAt,value
2018-05-02T00:00:40.856Z,54.80
2018-05-02T00:01:44.184Z,54.82
2018-05-02T00:02:47.503Z,54.88
2018-05-02T00:03:50.853Z,54.88
2018-05-02T00:04:54.291Z,54.93
2018-05-02T00:05:57.620Z,54.99
2018-05-02T00:07:01.011Z,55.00
2018-05-02T00:08:04.505Z,55.00
2018-05-02T00:09:07.928Z,55.03
2018-05-02T00:10:11.278Z,55.10
2018-05-02T00:11:14.669Z,55.15
2018-05-02T00:12:18.169Z,55.20
2018-05-02T00:13:21.630Z,55.25
2018-05-02T00:14:25.241Z,55.29
2018-05-02T00:15:28.640Z,55.34
2018-05-02T00:16:32.275Z,55.37
2018-05-02T00:17:35.762Z,55.39
2018-05-02T00:18:39.132Z,55.42
2018-05-02T00:19:42.450Z,55.45
2018-05-02T00:20:45.822Z,55.48
2018-05-02T00:21:49.167Z,55.55
2018-05-02T00:22:52.899Z,55.60
2018-05-02T00:23:56.347Z,55.66
2018-05-02T00:24:59.716Z,55.76
2018-05-02T00:26:03.028Z,55.81
2018-05-02T00:27:06.376Z,55.84
2018-05-02T00:28:09.724Z,55.89
2018-05-02T00:29:13.123Z,55.92
2018-05-02T00:30:16.499Z,56.01
2018-05-02T00:31:19.957Z,56.08
2018-05-02T00:32:23.315Z,56.14
2018-05-02T00:33:26.793Z,56.20
2018-05-02T00:34:30.199Z,56.26
2018-05-02T00:35:33.541Z,56.33
2018-05-02T00:36:36.891Z,56.41
2018-05-02T00:38:49.788Z,56.58
2018-05-02T00:39:53.118Z,56.66
2018-05-02T00:40:56.555Z,56.71
2018-05-02T00:41:59.965Z,56.76
2018-05-02T00:43:03.288Z,56.80
2018-05-02T00:44:06.676Z,56.88
2018-05-02T00:45:10.027Z,56.90
2018-05-02T00:46:13.418Z,56.92
2018-05-02T00:47:16.898Z,56.94
2018-05-02T00:48:20.470Z,56.98
2018-05-02T00:49:23.808Z,57.01
2018-05-02T00:50:27.159Z,57.07
2018-05-02T00:51:30.836Z,57.07
2018-05-02T00:52:34.444Z,57.09
2018-05-02T00:53:37.944Z,57.12
2018-05-02T00:54:41.287Z,57.15
2018-05-02T00:55:44.819Z,57.19
2018-05-02T00:56:48.200Z,57.26
2018-05-02T00:57:51.513Z,57.29
2018-05-02T00:58:54.897Z,57.31
2018-05-02T00:59:58.550Z,57.35
2018-05-02T01:01:01.875Z,57.38
2018-05-02T01:02:05.230Z,57.40
2018-05-02T01:03:08.561Z,57.44
2018-05-02T01:04:11.977Z,57.46
2018-05-02T01:05:15.369Z,57.53
2018-05-02T01:06:18.654Z,57.56
2018-05-02T01:07:22.004Z,57.59
2018-05-02T01:08:25.349Z,57.63
2018-05-02T01:09:28.672Z,57.69
2018-05-02T01:10:32.179Z,57.72
2018-05-02T01:11:36.401Z,57.73
2018-05-02T01:12:39.730Z,57.74
2018-05-02T01:13:43.112Z,57.77
2018-05-02T01:14:46.472Z,57.82
2018-05-02T01:15:49.847Z,57.83
2018-05-02T01:16:53.546Z,57.87
2018-05-02T01:17:56.938Z,57.89
2018-05-02T01:19:00.270Z,57.92
2018-05-02T01:20:03.627Z,57.92
2018-05-02T01:21:07.001Z,57.93
2018-05-02T01:22:10.330Z,57.92
2018-05-02T01:23:13.753Z,57.92
2018-05-02T01:24:17.064Z,57.96
2018-05-02T01:25:20.586Z,57.94
2018-05-02T01:26:24.018Z,57.95
2018-05-02T01:27:27.567Z,57.98
2018-05-02T01:28:30.984Z,58.06
2018-05-02T01:29:34.369Z,58.07
2018-05-02T01:30:37.852Z,58.08
2018-05-02T01:31:41.232Z,58.10
2018-05-02T01:32:44.564Z,58.09
2018-05-02T01:33:48.051Z,58.11
2018-05-02T01:34:51.385Z,58.13
2018-05-02T01:35:54.711Z,58.15
2018-05-02T01:36:58.117Z,58.21
2018-05-02T01:38:01.773Z,58.26
2018-05-02T01:39:05.141Z,58.31
2018-05-02T01:40:08.490Z,58.33
2018-05-02T01:41:11.845Z,58.37
2018-05-02T01:42:15.252Z,58.43
2018-05-02T01:43:18.588Z,58.45
2018-05-02T01:44:21.903Z,58.48
2018-05-02T01:45:25.296Z,58.51
2018-05-02T01:46:28.642Z,58.54
2018-05-02T01:47:32.031Z,58.58
2018-05-02T01:48:35.413Z,58.61
2018-05-02T01:49:38.740Z,58.64
2018-05-02T01:50:42.122Z,58.69
2018-05-02T01:51:45.765Z,58.72
2018-05-02T01:52:49.196Z,58.76
2018-05-02T01:53:52.591Z,58.81
2018-05-02T01:54:56.471Z,58.83
2018-05-02T01:55:59.866Z,58.86
2018-05-02T01:57:03.352Z,58.94
2018-05-02T01:58:06.740Z,58.96
2018-05-02T01:59:10.126Z,58.95
2018-05-02T02:00:13.464Z,58.98
2018-05-02T02:01:16.766Z,58.99
2018-05-02T02:02:20.139Z,59.02
2018-05-02T02:03:23.549Z,59.05
2018-05-02T02:04:27.135Z,59.09
2018-05-02T02:05:30.441Z,59.16
2018-05-02T02:06:33.760Z,59.20
2018-05-02T02:07:37.194Z,59.25
2018-05-02T02:08:40.597Z,59.31
2018-05-02T02:09:44.081Z,59.33
2018-05-02T02:10:47.545Z,59.36
2018-05-02T02:11:50.954Z,59.39
2018-05-02T02:12:54.342Z,59.44
2018-05-02T02:13:57.753Z,59.48
2018-05-02T02:15:01.085Z,59.50
2018-05-02T02:16:04.441Z,59.53
2018-05-02T02:17:08.083Z,59.56
2018-05-02T02:18:11.481Z,59.63
2018-05-02T02:19:14.960Z,59.66
2018-05-02T02:20:19.264Z,59.68
2018-05-02T02:21:22.563Z,59.71
2018-05-02T02:22:25.947Z,59.74
2018-05-02T02:23:29.304Z,59.77
2018-05-02T02:24:32.630Z,59.75
2018-05-02T02:25:36.115Z,59.79
2018-05-02T02:26:39.693Z,59.80
2018-05-02T02:27:43.017Z,59.81
2018-05-02T02:28:46.371Z,59.84
2018-05-02T02:29:50.051Z,59.88
2018-05-02T02:30:53.468Z,59.92
2018-05-02T02:31:56.892Z,59.98
2018-05-02T02:33:00.262Z,59.98
2018-05-02T02:34:03.681Z,60.00
2018-05-02T02:35:07.045Z,60.06
2018-05-02T02:36:10.376Z,60.09
2018-05-02T02:37:13.827Z,60.13
2018-05-02T02:38:17.165Z,60.15
2018-05-02T02:39:20.532Z,60.17
2018-05-02T02:40:24.091Z,60.17
2018-05-02T02:41:27.487Z,60.19
2018-05-02T02:42:30.856Z,60.21
2018-05-02T02:43:34.599Z,60.25
2018-05-02T02:44:38.035Z,60.28
2018-05-02T02:45:41.386Z,60.29
2018-05-02T02:46:44.817Z,60.31
2018-05-02T02:47:48.152Z,60.33
2018-05-02T02:48:51.488Z,60.35
2018-05-02T02:49:54.832Z,60.35
2018-05-02T02:50:58.200Z,60.32
2018-05-02T02:52:01.576Z,60.34
2018-05-02T02:53:04.974Z,60.38
2018-05-02T02:54:08.313Z,60.40
2018-05-02T02:55:11.680Z,60.41
2018-05-02T02:56:15.141Z,60.45
2018-05-02T02:57:18.537Z,60.51
2018-05-02T02:58:21.889Z,60.46
2018-05-02T02:59:25.221Z,60.48
2018-05-02T03:00:28.704Z,60.49
2018-05-02T03:01:32.189Z,60.52
2018-05-02T03:02:35.583Z,60.53
2018-05-02T03:03:38.956Z,60.54
2018-05-02T03:04:42.607Z,60.54
2018-05-02T03:05:46.456Z,60.57
2018-05-02T03:06:49.819Z,60.57
2018-05-02T03:07:53.385Z,60.58
2018-05-02T03:08:56.777Z,60.57
2018-05-02T03:10:00.360Z,60.58
2018-05-02T03:11:03.724Z,60.59
2018-05-02T03:12:07.119Z,60.63
2018-05-02T03:13:10.490Z,60.64
2018-05-02T03:14:13.961Z,60.67
2018-05-02T03:15:17.432Z,60.68
2018-05-02T03:16:20.933Z,60.69
2018-05-02T03:17:24.670Z,60.69
2018-05-02T03:19:30.544Z,60.75
2018-05-02T03:20:33.899Z,60.75
2018-05-02T03:21:37.378Z,60.74
2018-05-02T03:22:40.706Z,60.75
2018-05-02T03:23:44.038Z,60.75
2018-05-02T03:24:47.368Z,60.72
2018-05-02T03:25:50.721Z,60.74
2018-05-02T03:26:54.060Z,60.71
2018-05-02T03:27:57.519Z,60.71
2018-05-02T03:29:00.890Z,60.71
2018-05-02T03:30:04.228Z,60.71
2018-05-02T03:31:07.566Z,60.69
2018-05-02T03:32:10.892Z,60.67
2018-05-02T03:33:14.244Z,60.66
2018-05-02T03:34:17.655Z,60.66
2018-05-02T03:35:20.999Z,60.66
2018-05-02T03:36:24.319Z,60.65
2018-05-02T03:37:27.658Z,60.65
2018-05-02T03:38:31.039Z,60.66
2018-05-02T03:39:34.357Z,60.70
2018-05-02T03:40:37.717Z,60.72
2018-05-02T03:41:41.015Z,60.75
2018-05-02T03:42:44.343Z,60.83
2018-05-02T03:43:47.700Z,60.86
2018-05-02T03:44:51.066Z,60.89
2018-05-02T03:45:54.378Z,60.91
2018-05-02T03:46:57.729Z,60.96
2018-05-02T03:48:01.379Z,60.99
2018-05-02T03:49:04.740Z,61.03
2018-05-02T03:50:08.097Z,61.07
2018-05-02T03:51:11.423Z,61.15
2018-05-02T03:52:14.882Z,61.21
2018-05-02T03:53:18.220Z,61.29
2018-05-02T03:54:21.545Z,61.35
2018-05-02T03:55:24.877Z,61.42
2018-05-02T03:56:28.211Z,61.50
2018-05-02T03:57:31.539Z,61.54
2018-05-02T03:58:34.870Z,61.60
2018-05-02T03:59:50.063Z,61.66
2018-05-02T04:01:05.226Z,61.76
2018-05-02T04:02:20.269Z,61.87
2018-05-02T04:03:35.443Z,61.97
2018-05-02T04:04:50.746Z,62.07
2018-05-02T04:06:05.973Z,62.17
2018-05-02T04:07:14.258Z,62.26
2018-05-02T04:08:17.584Z,62.27
2018-05-02T04:09:21.185Z,62.24
2018-05-02T04:10:24.534Z,62.19
2018-05-02T04:11:27.889Z,62.14
2018-05-02T04:12:31.240Z,62.11
2018-05-02T04:13:34.581Z,62.10
2018-05-02T04:14:37.922Z,62.06
2018-05-02T04:15:41.309Z,62.01
2018-05-02T04:16:44.651Z,61.95
2018-05-02T04:17:49.075Z,61.93
2018-05-02T04:18:52.416Z,61.92
2018-05-02T04:19:55.756Z,61.93
2018-05-02T04:20:59.111Z,61.87
2018-05-02T04:22:02.515Z,61.81
2018-05-02T04:23:05.876Z,61.79
2018-05-02T04:24:09.250Z,61.74
2018-05-02T04:25:12.645Z,61.66
2018-05-02T04:26:16.009Z,61.62
2018-05-02T04:27:19.330Z,61.60
2018-05-02T04:28:22.653Z,61.53
2018-05-02T04:29:25.975Z,61.53
2018-05-02T04:30:29.625Z,61.47
2018-05-02T04:31:32.997Z,61.44
2018-05-02T04:32:36.340Z,61.40
2018-05-02T04:33:39.676Z,61.34
2018-05-02T04:34:42.994Z,61.30
2018-05-02T04:35:46.336Z,61.28
2018-05-02T04:36:49.679Z,61.25
2018-05-02T04:37:53.029Z,61.22
2018-05-02T04:38:56.485Z,61.21
2018-05-02T04:39:59.822Z,61.23
2018-05-02T04:41:03.212Z,61.25
2018-05-02T04:42:06.504Z,61.21
2018-05-02T04:43:09.835Z,61.17
2018-05-02T04:44:13.263Z,61.14
2018-05-02T04:45:16.595Z,61.17
2018-05-02T04:46:20.031Z,61.15
2018-05-02T04:47:23.418Z,61.11
2018-05-02T04:48:26.739Z,61.10
2018-05-02T04:49:30.306Z,61.06
2018-05-02T04:50:33.641Z,61.06
2018-05-02T04:51:36.981Z,61.07
2018-05-02T04:52:40.398Z,61.05
2018-05-02T04:53:43.668Z,61.02
2018-05-02T04:54:46.997Z,61.00
2018-05-02T04:55:50.338Z,60.97
2018-05-02T04:56:53.736Z,60.95
2018-05-02T04:57:57.111Z,60.92
2018-05-02T04:59:00.458Z,60.91
2018-05-02T05:00:03.802Z,60.92
2018-05-02T05:01:07.142Z,60.90
2018-05-02T05:02:10.510Z,60.90
2018-05-02T05:03:13.892Z,60.83
2018-05-02T05:04:17.228Z,60.80
2018-05-02T05:05:20.590Z,60.76
2018-05-02T05:06:23.940Z,60.70
2018-05-02T05:07:27.259Z,60.65
2018-05-02T05:08:30.610Z,60.62
2018-05-02T05:09:33.951Z,60.64
2018-05-02T05:10:37.294Z,60.62
2018-05-02T05:11:40.631Z,60.60
2018-05-02T05:12:43.947Z,60.55
2018-05-02T05:13:47.278Z,60.51
2018-05-02T05:14:50.619Z,60.50
2018-05-02T05:15:53.964Z,60.47
2018-05-02T05:16:57.318Z,60.48
2018-05-02T05:18:01.180Z,60.48
2018-05-02T05:19:06.716Z,60.48
2018-05-02T05:20:10.060Z,60.50
2018-05-02T05:21:13.444Z,60.53
2018-05-02T05:22:16.790Z,60.51
2018-05-02T05:23:20.150Z,60.48
2018-05-02T05:24:23.673Z,60.46
2018-05-02T05:25:27.118Z,60.45
2018-05-02T05:26:30.571Z,60.42
2018-05-02T05:27:33.896Z,60.39
2018-05-02T05:28:37.229Z,60.38
2018-05-02T05:29:40.569Z,60.35
2018-05-02T05:30:43.960Z,60.30
2018-05-02T05:31:47.297Z,60.27
2018-05-02T05:32:50.656Z,60.25
2018-05-02T05:33:53.998Z,60.20
2018-05-02T05:34:57.339Z,60.19
2018-05-02T05:36:00.702Z,60.14
2018-05-02T05:37:04.019Z,60.10
2018-05-02T05:38:07.433Z,60.05
2018-05-02T05:39:10.827Z,60.07
2018-05-02T05:40:14.188Z,60.00
2018-05-02T05:41:17.621Z,59.79
2018-05-02T05:42:20.950Z,59.34
2018-05-02T05:43:24.276Z,58.83
2018-05-02T05:44:27.607Z,58.14
2018-05-02T05:45:31.100Z,57.42
2018-05-02T05:46:34.429Z,56.63
2018-05-02T05:47:37.803Z,55.90
2018-05-02T05:48:41.158Z,55.07
2018-05-02T05:49:44.485Z,54.31
2018-05-02T05:50:47.881Z,53.50
2018-05-02T05:51:51.310Z,52.86
2018-05-02T05:52:54.644Z,52.22
2018-05-02T05:53:58.007Z,51.56
2018-05-02T05:55:01.559Z,50.88
2018-05-02T05:56:05.011Z,50.38
2018-05-02T05:57:08.422Z,49.81
2018-05-02T05:58:11.726Z,49.24
2018-05-02T05:59:15.059Z,48.75
2018-05-02T06:00:18.421Z,48.21
2018-05-02T06:01:21.783Z,47.79
2018-05-02T06:02:25.236Z,47.30
2018-05-02T06:03:28.563Z,46.84
2018-05-02T06:04:31.896Z,46.50
2018-05-02T06:05:35.270Z,46.09
2018-05-02T06:06:38.620Z,45.55
2018-05-02T06:07:41.975Z,45.15
2018-05-02T06:08:45.394Z,44.73
2018-05-02T06:09:48.722Z,44.38
2018-05-02T06:10:52.111Z,43.84
2018-05-02T06:11:55.489Z,43.42
2018-05-02T06:12:58.831Z,42.96
2018-05-02T06:14:02.288Z,42.58
2018-05-02T06:15:05.661Z,42.11
2018-05-02T06:16:09.015Z,41.77
2018-05-02T06:17:13.238Z,41.45
2018-05-02T06:18:16.723Z,41.07
2018-05-02T06:19:20.056Z,40.70
2018-05-02T06:20:23.382Z,40.33
2018-05-02T06:21:26.722Z,40.02
2018-05-02T06:22:30.078Z,39.74
2018-05-02T06:23:33.391Z,39.50
2018-05-02T06:24:36.705Z,39.24
2018-05-02T06:25:40.024Z,39.01
2018-05-02T06:26:43.402Z,38.82
2018-05-02T06:27:46.776Z,38.61
2018-05-02T06:28:50.201Z,38.42
2018-05-02T06:29:53.514Z,38.21
2018-05-02T06:30:56.929Z,37.99
2018-05-02T06:32:00.313Z,37.80
2018-05-02T06:33:03.621Z,37.55
2018-05-02T06:34:07.007Z,37.27
2018-05-02T06:35:10.354Z,37.05
2018-05-02T06:36:13.697Z,36.81
2018-05-02T06:37:17.041Z,36.63
2018-05-02T06:38:20.592Z,36.45
2018-05-02T06:39:23.961Z,36.27
2018-05-02T06:40:27.271Z,36.06
2018-05-02T06:41:30.607Z,35.87
2018-05-02T06:42:33.999Z,35.76
2018-05-02T06:43:37.344Z,35.66
2018-05-02T06:44:40.748Z,35.50
2018-05-02T06:45:44.078Z,35.25
2018-05-02T06:46:47.420Z,35.05
2018-05-02T06:47:50.796Z,34.79
2018-05-02T06:48:54.125Z,34.53
2018-05-02T06:49:57.474Z,34.38
2018-05-02T06:51:00.823Z,34.26
2018-05-02T06:52:04.162Z,34.04
2018-05-02T06:53:07.583Z,33.96
2018-05-02T06:54:10.938Z,33.87
2018-05-02T06:55:14.259Z,33.72
2018-05-02T06:56:17.629Z,33.60
2018-05-02T06:57:21.081Z,33.55
2018-05-02T06:58:24.947Z,33.55
2018-05-02T06:59:28.352Z,33.67
2018-05-02T07:00:31.689Z,33.86
2018-05-02T07:01:35.008Z,34.11
2018-05-02T07:02:38.357Z,34.51
2018-05-02T07:03:41.700Z,35.03
2018-05-02T07:04:45.094Z,35.50
2018-05-02T07:05:48.426Z,35.91
2018-05-02T07:06:51.795Z,36.28
2018-05-02T07:07:55.152Z,36.66
2018-05-02T07:08:58.566Z,37.02
2018-05-02T07:10:01.912Z,37.36
2018-05-02T07:11:05.236Z,37.74
2018-05-02T07:12:08.638Z,38.14
2018-05-02T07:13:11.931Z,38.51
2018-05-02T07:14:15.291Z,38.86
2018-05-02T07:15:18.723Z,39.26
2018-05-02T07:16:22.039Z,39.68
2018-05-02T07:17:25.414Z,40.00
2018-05-02T07:18:28.792Z,40.32
2018-05-02T07:19:32.119Z,40.52
2018-05-02T07:20:35.464Z,40.77
2018-05-02T07:21:38.779Z,41.01
2018-05-02T07:22:42.135Z,41.23
2018-05-02T07:23:45.443Z,41.45
2018-05-02T07:24:48.763Z,41.70
2018-05-02T07:25:52.220Z,42.00
2018-05-02T07:26:55.532Z,42.26
2018-05-02T07:27:58.930Z,42.39
2018-05-02T07:29:02.275Z,42.54
2018-05-02T07:30:05.594Z,42.78
2018-05-02T07:31:08.931Z,42.92
2018-05-02T07:32:12.331Z,43.13
2018-05-02T07:33:15.653Z,43.18
2018-05-02T07:34:18.987Z,43.29
2018-05-02T07:35:22.343Z,43.44
2018-05-02T07:36:25.740Z,43.49
2018-05-02T07:37:29.060Z,43.54
2018-05-02T07:38:32.428Z,43.68
2018-05-02T07:39:35.777Z,43.88
2018-05-02T07:40:39.092Z,44.00
2018-05-02T07:41:42.448Z,44.26
2018-05-02T07:43:55.473Z,44.60
2018-05-02T07:44:58.807Z,44.69
2018-05-02T07:46:02.139Z,44.75
2018-05-02T07:47:05.538Z,44.68
2018-05-02T07:48:08.868Z,44.67
2018-05-02T07:49:12.448Z,44.74
2018-05-02T07:50:15.827Z,44.90
2018-05-02T07:51:19.155Z,44.98
2018-05-02T07:52:22.516Z,45.09
2018-05-02T07:53:25.890Z,45.27
2018-05-02T07:54:29.657Z,45.30
2018-05-02T07:55:32.967Z,45.27
2018-05-02T07:56:36.345Z,45.28
2018-05-02T07:57:39.710Z,45.30
2018-05-02T07:58:43.061Z,45.26
2018-05-02T07:59:46.392Z,45.22
2018-05-02T08:00:49.748Z,45.18
2018-05-02T08:01:53.084Z,45.23
2018-05-02T08:02:56.430Z,45.33
2018-05-02T08:03:59.773Z,45.31
2018-05-02T08:05:03.113Z,45.24
2018-05-02T08:06:06.431Z,45.27
2018-05-02T08:07:09.858Z,45.29
2018-05-02T08:08:13.200Z,45.30
2018-05-02T08:09:16.520Z,45.31
2018-05-02T08:10:19.858Z,45.34
2018-05-02T08:11:23.253Z,45.46
2018-05-02T08:12:26.522Z,45.60
2018-05-02T08:13:29.859Z,45.63
2018-05-02T08:14:33.202Z,45.65
2018-05-02T08:15:36.559Z,45.56
2018-05-02T08:16:39.863Z,45.26
2018-05-02T08:17:43.191Z,45.17
2018-05-02T08:18:47.530Z,45.08
2018-05-02T08:19:50.892Z,44.94
2018-05-02T08:20:54.244Z,44.90
2018-05-02T08:21:57.730Z,44.93
2018-05-02T08:23:00.971Z,44.94
2018-05-02T08:24:04.346Z,44.93
2018-05-02T08:25:07.673Z,44.92
2018-05-02T08:26:11.003Z,44.68
2018-05-02T08:27:14.313Z,44.55
2018-05-02T08:28:17.657Z,44.44
2018-05-02T08:29:21.025Z,44.20
2018-05-02T08:30:24.340Z,44.15
2018-05-02T08:31:27.673Z,44.11
2018-05-02T08:32:31.013Z,44.08
2018-05-02T08:33:34.324Z,43.93
2018-05-02T08:34:37.755Z,43.95
2018-05-02T08:35:41.161Z,44.11
2018-05-02T08:36:44.546Z,43.97
2018-05-02T08:37:48.369Z,43.79
2018-05-02T08:38:52.996Z,43.65
2018-05-02T08:39:56.312Z,43.65
2018-05-02T08:40:59.630Z,43.51
2018-05-02T08:42:02.992Z,43.46
2018-05-02T08:43:06.320Z,43.38
2018-05-02T08:44:09.656Z,43.29
2018-05-02T08:45:13.019Z,43.27
2018-05-02T08:46:16.600Z,43.22
2018-05-02T08:47:20.001Z,43.25
2018-05-02T08:48:23.641Z,43.23
2018-05-02T08:49:27.028Z,42.96
2018-05-02T08:50:30.426Z,42.43
2018-05-02T08:51:33.742Z,42.23
2018-05-02T08:52:37.258Z,42.16
2018-05-02T08:53:40.600Z,42.11
2018-05-02T08:54:44.085Z,41.95
2018-05-02T08:55:47.645Z,41.98
2018-05-02T08:56:51.009Z,42.01
2018-05-02T08:57:54.672Z,41.99
2018-05-02T08:58:58.097Z,41.98
2018-05-02T09:00:01.416Z,41.93
2018-05-02T09:01:04.798Z,42.02
2018-05-02T09:02:08.142Z,42.14
2018-05-02T09:03:11.463Z,42.27
2018-05-02T09:04:15.088Z,42.44
2018-05-02T09:05:18.494Z,42.56
2018-05-02T09:06:21.895Z,42.63
2018-05-02T09:07:25.230Z,42.77
2018-05-02T09:08:28.599Z,42.84
2018-05-02T09:09:31.937Z,42.96
2018-05-02T09:10:35.274Z,43.02
2018-05-02T09:11:38.602Z,43.05
2018-05-02T09:12:41.924Z,43.05
2018-05-02T09:13:45.244Z,43.11
2018-05-02T09:14:48.568Z,43.17
2018-05-02T09:15:52.136Z,43.17
2018-05-02T09:16:55.580Z,43.21
2018-05-02T09:17:58.948Z,43.14
2018-05-02T09:19:02.415Z,43.16
2018-05-02T09:20:05.741Z,42.95
2018-05-02T09:21:09.067Z,42.72
2018-05-02T09:22:12.428Z,42.55
2018-05-02T09:23:16.139Z,42.41
2018-05-02T09:24:19.543Z,42.14
2018-05-02T09:25:22.908Z,41.87
2018-05-02T09:26:26.247Z,41.70
2018-05-02T09:27:29.591Z,41.52
2018-05-02T09:28:33.050Z,41.53
2018-05-02T09:29:36.354Z,41.55
2018-05-02T09:30:39.689Z,41.55
2018-05-02T09:31:42.998Z,41.66
2018-05-02T09:32:46.337Z,41.87
2018-05-02T09:33:49.678Z,42.08
2018-05-02T09:34:53.096Z,42.34
2018-05-02T09:35:56.437Z,42.49
2018-05-02T09:36:59.748Z,42.55
2018-05-02T09:38:03.128Z,42.71
2018-05-02T09:39:06.452Z,42.78
2018-05-02T09:40:09.784Z,42.63
2018-05-02T09:41:13.104Z,42.45
2018-05-02T09:42:16.443Z,42.26
2018-05-02T09:43:19.793Z,42.14
2018-05-02T09:44:23.122Z,42.05
2018-05-02T09:45:26.457Z,41.95
2018-05-02T09:46:30.240Z,41.89
2018-05-02T09:47:33.644Z,41.90
2018-05-02T09:48:37.028Z,41.89
2018-05-02T09:49:40.377Z,41.93
2018-05-02T09:50:43.699Z,42.05
2018-05-02T09:51:47.059Z,42.08
2018-05-02T09:52:50.414Z,42.13
2018-05-02T09:53:53.806Z,42.27
2018-05-02T09:54:57.164Z,42.38
2018-05-02T09:56:00.579Z,42.38
2018-05-02T09:57:03.907Z,42.32
2018-05-02T09:58:07.237Z,42.37
2018-05-02T09:59:10.644Z,42.46
2018-05-02T10:00:14.024Z,42.51
2018-05-02T10:01:17.357Z,42.69
2018-05-02T10:02:20.889Z,42.66
2018-05-02T10:03:24.218Z,42.66
2018-05-02T10:04:27.588Z,42.62
2018-05-02T10:05:30.872Z,42.66
2018-05-02T10:06:34.266Z,42.59
2018-05-02T10:07:37.640Z,42.57
2018-05-02T10:08:41.090Z,42.52
2018-05-02T10:09:44.425Z,42.52
2018-05-02T10:10:47.745Z,42.49
2018-05-02T10:11:51.126Z,42.45
2018-05-02T10:12:54.493Z,42.44
2018-05-02T10:13:57.804Z,42.13
2018-05-02T10:15:01.194Z,41.90
2018-05-02T10:16:04.547Z,41.78
2018-05-02T10:17:07.894Z,41.60
2018-05-02T10:18:11.203Z,41.58
2018-05-02T10:19:16.239Z,41.68
2018-05-02T10:20:19.607Z,41.51
2018-05-02T10:21:22.974Z,41.29
2018-05-02T10:22:26.304Z,41.13
2018-05-02T10:23:29.719Z,40.99
2018-05-02T10:24:33.023Z,40.78
2018-05-02T10:25:36.400Z,40.65
2018-05-02T10:26:39.754Z,40.47
2018-05-02T10:27:43.084Z,40.31
2018-05-02T10:28:46.680Z,40.19
2018-05-02T10:29:50.033Z,40.13
2018-05-02T10:30:53.415Z,40.09
2018-05-02T10:31:56.743Z,39.89
2018-05-02T10:33:00.106Z,39.71
2018-05-02T10:34:03.477Z,39.48
2018-05-02T10:35:06.802Z,39.41
2018-05-02T10:36:10.215Z,39.33
2018-05-02T10:37:13.552Z,39.16
2018-05-02T10:38:16.911Z,39.47
2018-05-02T10:39:20.442Z,39.61
2018-05-02T10:40:23.752Z,39.67
2018-05-02T10:41:27.133Z,39.49
2018-05-02T10:42:30.576Z,39.47
2018-05-02T10:43:33.955Z,39.35
2018-05-02T10:44:37.259Z,39.28
2018-05-02T10:45:40.613Z,39.32
2018-05-02T10:46:43.969Z,39.33
2018-05-02T10:47:47.336Z,39.24
2018-05-02T10:48:50.717Z,39.18
2018-05-02T10:49:54.037Z,39.27
2018-05-02T10:50:57.338Z,39.14
2018-05-02T10:52:00.762Z,38.73
2018-05-02T10:53:04.059Z,38.58
2018-05-02T10:54:07.413Z,38.43
2018-05-02T10:55:10.725Z,38.35
2018-05-02T10:56:14.121Z,38.33
2018-05-02T10:57:17.519Z,38.28
2018-05-02T10:58:20.812Z,38.13
2018-05-02T10:59:24.254Z,38.10
2018-05-02T11:00:27.559Z,38.20
2018-05-02T11:01:30.873Z,38.22
2018-05-02T11:02:34.300Z,38.34
2018-05-02T11:03:37.605Z,38.49
2018-05-02T11:04:40.907Z,38.64
2018-05-02T11:05:44.259Z,38.74
2018-05-02T11:06:47.571Z,38.83
2018-05-02T11:07:50.923Z,38.61
2018-05-02T11:08:54.261Z,38.31
2018-05-02T11:09:57.572Z,38.14
2018-05-02T11:11:00.920Z,37.98
2018-05-02T11:12:04.234Z,37.95
2018-05-02T11:13:07.572Z,38.04
2018-05-02T11:14:10.892Z,38.10
2018-05-02T11:15:14.278Z,38.22
2018-05-02T11:16:17.593Z,38.34
2018-05-02T11:17:21.071Z,38.48
2018-05-02T11:18:24.431Z,38.57
2018-05-02T11:19:29.652Z,38.47
2018-05-02T11:20:32.979Z,38.18
2018-05-02T11:21:36.284Z,38.14
2018-05-02T11:22:39.652Z,38.02
2018-05-02T11:23:43.003Z,37.84
2018-05-02T11:24:46.326Z,38.00
2018-05-02T11:25:49.706Z,37.99
2018-05-02T11:26:53.036Z,37.96
2018-05-02T11:27:56.356Z,37.80
2018-05-02T11:28:59.726Z,37.76
2018-05-02T11:30:03.080Z,37.77
2018-05-02T11:31:06.404Z,37.83
2018-05-02T11:32:09.738Z,37.93
2018-05-02T11:33:13.143Z,37.90
2018-05-02T11:34:16.527Z,37.71
2018-05-02T11:35:19.948Z,37.67
2018-05-02T11:36:23.338Z,37.72
2018-05-02T11:37:26.675Z,37.96
2018-05-02T11:38:29.972Z,38.12
2018-05-02T11:39:33.373Z,38.26
2018-05-02T11:40:36.785Z,37.95
2018-05-02T11:41:40.148Z,37.89
2018-05-02T11:42:43.474Z,37.93
2018-05-02T11:43:46.800Z,37.97
2018-05-02T11:44:50.163Z,38.01
2018-05-02T11:45:53.851Z,38.00
2018-05-02T11:46:57.160Z,37.99
2018-05-02T11:48:00.496Z,37.97
2018-05-02T11:49:03.812Z,38.04
2018-05-02T11:50:07.192Z,38.18
2018-05-02T11:51:10.523Z,38.30
2018-05-02T11:52:13.839Z,38.25
2018-05-02T11:53:17.157Z,38.03
2018-05-02T11:54:20.612Z,37.78
2018-05-02T11:55:23.976Z,37.78
2018-05-02T11:56:27.291Z,37.91
2018-05-02T11:57:30.619Z,38.10
2018-05-02T11:58:33.950Z,38.08
2018-05-02T11:59:37.298Z,38.13
2018-05-02T12:00:40.702Z,38.15
2018-05-02T12:01:44.035Z,38.20
2018-05-02T12:02:47.368Z,37.98
2018-05-02T12:03:50.776Z,37.64
2018-05-02T12:04:54.211Z,37.47
2018-05-02T12:05:57.621Z,37.39
2018-05-02T12:07:00.915Z,37.50
2018-05-02T12:08:04.253Z,37.58
2018-05-02T12:09:07.564Z,37.71
2018-05-02T12:10:10.889Z,37.80
2018-05-02T12:11:14.229Z,37.82
2018-05-02T12:12:17.569Z,37.69
2018-05-02T12:13:20.924Z,37.30
2018-05-02T12:14:24.256Z,37.30
2018-05-02T12:15:27.567Z,37.28
2018-05-02T12:16:30.911Z,37.25
2018-05-02T12:17:34.232Z,37.05
2018-05-02T12:18:37.567Z,36.89
2018-05-02T12:19:41.194Z,36.80
2018-05-02T12:20:44.500Z,36.82
2018-05-02T12:21:47.838Z,36.93
2018-05-02T12:22:51.218Z,37.02
2018-05-02T12:23:54.534Z,37.13
2018-05-02T12:24:57.901Z,37.22
2018-05-02T12:26:01.709Z,37.08
2018-05-02T12:27:05.199Z,36.96
2018-05-02T12:28:08.518Z,36.95
2018-05-02T12:29:11.852Z,36.85
2018-05-02T12:30:15.152Z,37.01
2018-05-02T12:31:18.465Z,36.99
2018-05-02T12:32:21.817Z,37.02
2018-05-02T12:33:25.132Z,36.99
2018-05-02T12:34:28.492Z,36.95
2018-05-02T12:35:31.983Z,36.85
2018-05-02T12:36:35.160Z,36.89
2018-05-02T12:37:38.513Z,36.76
2018-05-02T12:38:41.824Z,36.49
2018-05-02T12:39:45.156Z,36.40
2018-05-02T12:40:48.500Z,36.37
2018-05-02T12:41:51.809Z,36.27
2018-05-02T12:42:55.193Z,36.21
2018-05-02T12:43:58.584Z,36.30
2018-05-02T12:45:02.015Z,36.41
2018-05-02T12:46:05.349Z,36.24
2018-05-02T12:47:08.699Z,36.16
2018-05-02T12:48:12.041Z,36.23
2018-05-02T12:49:15.368Z,36.30
2018-05-02T12:50:18.750Z,36.40
2018-05-02T12:51:23.819Z,36.58
2018-05-02T12:52:27.149Z,36.74
2018-05-02T12:53:31.333Z,36.88
2018-05-02T12:54:34.656Z,36.87
2018-05-02T12:55:37.987Z,36.87
2018-05-02T12:56:41.320Z,37.15
2018-05-02T12:57:44.644Z,37.25
2018-05-02T12:58:48.081Z,37.03
2018-05-02T12:59:51.429Z,36.95
2018-05-02T13:00:54.755Z,36.89
2018-05-02T13:01:59.390Z,36.86
2018-05-02T13:03:02.695Z,36.98
2018-05-02T13:04:06.075Z,36.88
2018-05-02T13:05:09.421Z,36.59
2018-05-02T13:06:12.735Z,36.50
2018-05-02T13:07:16.093Z,36.38
2018-05-02T13:08:19.458Z,36.20
2018-05-02T13:09:22.813Z,36.09
2018-05-02T13:10:26.127Z,36.04
2018-05-02T13:11:29.453Z,36.01
2018-05-02T13:12:32.824Z,35.85
2018-05-02T13:13:36.181Z,35.74
2018-05-02T13:14:39.766Z,35.83
2018-05-02T13:15:43.160Z,36.08
2018-05-02T13:16:46.598Z,36.27
2018-05-02T13:17:49.906Z,36.30
2018-05-02T13:18:53.250Z,36.17
2018-05-02T13:19:57.721Z,35.98
2018-05-02T13:21:01.135Z,35.89
2018-05-02T13:22:04.530Z,35.86
2018-05-02T13:23:07.863Z,35.76
2018-05-02T13:24:11.208Z,35.63
2018-05-02T13:25:14.619Z,35.55
2018-05-02T13:26:17.957Z,35.47
2018-05-02T13:27:21.321Z,35.36
2018-05-02T13:28:25.265Z,35.37
2018-05-02T13:29:28.895Z,35.38
2018-05-02T13:30:32.246Z,35.47
2018-05-02T13:31:35.632Z,35.43
2018-05-02T13:32:38.945Z,35.34
2018-05-02T13:33:42.263Z,35.17
2018-05-02T13:34:45.659Z,34.92
2018-05-02T13:35:48.992Z,34.76
2018-05-02T13:36:52.319Z,34.67
2018-05-02T13:37:55.636Z,34.69
2018-05-02T13:38:59.007Z,34.84
2018-05-02T13:40:02.411Z,35.13
2018-05-02T13:41:05.741Z,35.23